Time;durP1;ratioP1;P1;durP2;ratioP2;P2;SDS_P1;SDS_P2;PMS_P1;PMS_P2;Temp;Humidity;BMP_temperature;BMP_pressure;BME280_temperature;BME280_humidity;BME280_pressure;Samples;Min_cycle;Max_cycle;Signal;HPM_P1;HPM_P2
2023/02/26 00:00:45;;;;;;;11.07;2.75;;;;;;;-1.24;91.08;101426.47;4978071;28;20030;-81
2023/02/26 00:03:10;;;;;;;12.55;2.42;;;;;;;-1.27;91.55;101426.59;4956073;28;20047;-78
2023/02/26 00:05:36;;;;;;;9.35;2.67;;;;;;;-1.26;91.91;101426.53;4970015;28;20047;-81
2023/02/26 00:08:04;;;;;;;20.13;4.03;;;;;;;-1.22;91.71;101433.13;4960395;28;20068;-81
2023/02/26 00:10:30;;;;;;;10.75;2.88;;;;;;;-1.19;92.04;101432.16;4966996;28;20410;-80
2023/02/26 00:12:56;;;;;;;14.98;3.22;;;;;;;-1.08;92.13;101429.16;4959413;28;20164;-81
2023/02/26 00:15:22;;;;;;;11.98;2.85;;;;;;;-1.03;91.76;101434.91;4952625;28;20042;-80
2023/02/26 00:18:00;;;;;;;8.90;2.50;;;;;;;-0.91;91.76;101434.34;4984235;28;20034;-80
2023/02/26 00:20:26;;;;;;;14.98;2.95;;;;;;;-0.91;91.68;101438.63;4975403;28;20051;-80
2023/02/26 00:22:54;;;;;;;6.13;2.30;;;;;;;-0.94;92.00;101437.06;4950890;28;20035;-80
2023/02/26 00:25:20;;;;;;;14.15;2.95;;;;;;;-0.95;91.66;101440.47;4981685;28;20125;-79
2023/02/26 00:27:45;;;;;;;12.82;2.78;;;;;;;-0.93;91.92;101448.88;4962655;28;20058;-78
2023/02/26 00:30:12;;;;;;;9.02;2.80;;;;;;;-0.89;92.02;101454.66;4973509;28;20125;-80
2023/02/26 00:32:39;;;;;;;11.57;2.30;;;;;;;-0.88;92.29;101454.63;4968439;28;20511;-81
2023/02/26 00:35:08;;;;;;;8.82;3.03;;;;;;;-0.88;92.30;101462.25;4967783;28;20038;-80
2023/02/26 00:37:52;;;;;;;6.25;2.10;;;;;;;-0.94;93.19;101461.66;4972908;28;20037;-78
2023/02/26 00:40:17;;;;;;;13.27;2.60;;;;;;;-0.92;93.13;101470.06;4985987;28;20035;-80
2023/02/26 00:42:43;;;;;;;13.15;3.10;;;;;;;-0.93;93.50;101466.69;4968182;28;20126;-81
2023/02/26 00:45:12;;;;;;;14.00;3.42;;;;;;;-0.91;94.10;101469.19;4944302;28;20095;-79
2023/02/26 00:47:54;;;;;;;10.55;2.17;;;;;;;-0.90;93.86;101470.84;4986399;28;20131;-80
2023/02/26 00:50:22;;;;;;;10.32;2.40;;;;;;;-0.92;94.29;101473.47;4970604;28;20122;-80
2023/02/26 00:53:03;;;;;;;10.45;2.38;;;;;;;-0.89;94.69;101482.69;4974761;28;20039;-80
2023/02/26 00:55:29;;;;;;;7.65;2.17;;;;;;;-0.82;94.12;101476.44;4969294;28;20038;-79
2023/02/26 00:57:54;;;;;;;10.20;2.15;;;;;;;-0.86;94.84;101475.75;4953710;28;20034;-80
2023/02/26 01:00:20;;;;;;;8.82;2.60;;;;;;;-0.83;95.15;101483.25;4985747;28;20166;-80
2023/02/26 01:02:47;;;;;;;11.95;2.70;;;;;;;-0.86;95.23;101480.84;4982503;28;20062;-79
2023/02/26 01:05:14;;;;;;;12.18;2.05;;;;;;;-0.87;95.51;101478.34;4962993;28;20117;-81
2023/02/26 01:07:46;;;;;;;14.25;2.80;;;;;;;-0.86;95.87;101483.38;4989643;28;20117;-80
2023/02/26 01:10:13;;;;;;;7.93;2.60;;;;;;;-0.89;96.01;101483.50;4984631;28;20043;-80
2023/02/26 01:12:39;;;;;;;6.75;2.00;;;;;;;-0.82;96.34;101486.63;4968576;28;20026;-79
2023/02/26 01:15:06;;;;;;;12.00;2.70;;;;;;;-0.79;96.20;101491.59;4977521;28;20074;-80
2023/02/26 01:17:59;;;;;;;8.85;2.67;;;;;;;-0.69;95.99;101499.66;4983544;28;20034;-80
2023/02/26 01:20:37;;;;;;;13.02;2.83;;;;;;;-0.69;95.97;101495.41;4956673;28;20144;-80
2023/02/26 01:23:07;;;;;;;10.70;2.33;;;;;;;-0.60;95.60;101492.44;4983749;28;20046;-80
2023/02/26 01:25:50;;;;;;;6.13;2.00;;;;;;;-0.61;95.54;101495.06;4981377;28;20035;-80
2023/02/26 01:28:16;;;;;;;9.00;2.28;;;;;;;-0.64;95.62;101501.13;4962657;28;20355;-80
2023/02/26 01:30:42;;;;;;;11.48;2.42;;;;;;;-0.71;95.56;101499.72;4977764;28;20101;-80
2023/02/26 01:33:07;;;;;;;5.80;2.65;;;;;;;-0.76;95.73;101501.63;4947323;28;20035;-79
2023/02/26 01:35:47;;;;;;;14.90;2.17;;;;;;;-0.74;96.25;101496.47;4956153;28;20042;-79
2023/02/26 01:38:30;;;;;;;10.40;2.10;;;;;;;-0.79;96.17;101501.78;4981203;28;20374;-80
2023/02/26 01:41:20;;;;;;;12.02;2.45;;;;;;;-0.85;96.76;101505.44;4966753;28;20122;-80
2023/02/26 01:44:07;;;;;;;10.07;3.50;;;;;;;-0.83;96.62;101498.53;4964449;28;20034;-80
2023/02/26 01:46:54;;;;;;;11.38;2.65;;;;;;;-0.87;96.77;101499.53;4974811;28;20038;-81
2023/02/26 01:49:20;;;;;;;11.43;2.60;;;;;;;-0.87;96.86;101497.00;4964483;28;20039;-79
2023/02/26 01:51:45;;;;;;;9.63;2.05;;;;;;;-0.93;97.00;101507.44;4965893;28;20042;-80
2023/02/26 01:54:12;;;;;;;6.95;1.88;;;;;;;-0.93;96.84;101502.34;4965986;28;20027;-80
2023/02/26 01:56:39;;;;;;;5.82;2.40;;;;;;;-0.98;96.90;101512.75;4966273;28;20481;-80
2023/02/26 01:59:07;;;;;;;9.65;2.75;;;;;;;-1.01;97.43;101517.94;4951376;28;20026;-80
2023/02/26 02:01:35;;;;;;;11.98;2.88;;;;;;;-0.99;97.60;101511.06;4951830;28;20038;-79
2023/02/26 02:04:02;;;;;;;11.63;2.45;;;;;;;-0.98;97.47;101509.34;4968259;28;20065;-80
2023/02/26 02:06:29;;;;;;;8.13;3.15;;;;;;;-1.04;97.25;101520.63;4988227;28;21672;-80
2023/02/26 02:08:55;;;;;;;8.88;2.60;;;;;;;-1.05;97.53;101520.69;4953809;28;20417;-80
2023/02/26 02:11:21;;;;;;;7.47;2.15;;;;;;;-1.04;97.85;101530.81;4963429;28;20651;-80
2023/02/26 02:14:12;;;;;;;5.50;2.03;;;;;;;-1.03;97.58;101522.28;4971480;28;20031;-80
2023/02/26 02:16:58;;;;;;;6.05;2.10;;;;;;;-1.05;97.65;101530.88;4966567;28;20044;-80
2023/02/26 02:19:42;;;;;;;5.55;2.22;;;;;;;-0.98;97.47;101539.91;4964797;28;20034;-80
2023/02/26 02:22:19;;;;;;;6.43;1.92;;;;;;;-0.98;96.97;101542.44;4981249;28;20114;-80
2023/02/26 02:25:11;;;;;;;18.13;2.60;;;;;;;-1.03;96.93;101539.28;4970176;28;20054;-79
2023/02/26 02:27:42;;;;;;;7.30;2.33;;;;;;;-1.06;96.86;101540.22;4942178;28;20043;-80
2023/02/26 02:30:18;;;;;;;10.60;2.25;;;;;;;-1.11;97.18;101542.16;4970521;28;20046;-79
2023/02/26 02:32:50;;;;;;;8.43;1.73;;;;;;;-1.06;97.01;101545.31;4970838;28;20031;-80
2023/02/26 02:35:35;;;;;;;6.75;1.98;;;;;;;-1.06;96.55;101547.84;4962836;28;20034;-80
2023/02/26 02:38:19;;;;;;;5.93;1.92;;;;;;;-1.16;96.22;101561.88;4971209;28;20069;-80
2023/02/26 02:40:50;;;;;;;11.75;1.98;;;;;;;-1.20;96.81;101555.25;4986016;28;20042;-81
2023/02/26 02:43:24;;;;;;;8.75;1.98;;;;;;;-1.22;96.77;101570.56;4972214;28;20126;-80
2023/02/26 02:46:06;;;;;;;7.13;2.20;;;;;;;-1.24;97.07;101574.91;4969678;28;20070;-80
2023/02/26 02:48:37;;;;;;;9.13;1.90;;;;;;;-1.27;96.98;101579.28;4972945;28;20069;-79
2023/02/26 02:51:10;;;;;;;8.15;1.70;;;;;;;-1.32;97.29;101578.63;4959320;28;20047;-80
2023/02/26 02:53:44;;;;;;;9.80;1.98;;;;;;;-1.34;97.31;101578.69;4987504;28;20134;-79
2023/02/26 02:56:15;;;;;;;9.85;2.40;;;;;;;-1.36;97.16;101577.91;4983967;28;20497;-79
2023/02/26 02:58:48;;;;;;;5.95;1.83;;;;;;;-1.33;96.86;101582.06;4978044;28;20515;-80
2023/02/26 03:01:18;;;;;;;11.98;1.95;;;;;;;-1.31;97.04;101580.28;4984834;28;20073;-79
2023/02/26 03:04:01;;;;;;;5.50;1.90;;;;;;;-1.39;96.81;101585.69;4974660;28;20089;-80
2023/02/26 03:06:29;;;;;;;5.20;1.70;;;;;;;-1.33;96.73;101593.06;4978196;28;20130;-78
2023/02/26 03:08:55;;;;;;;7.22;2.05;;;;;;;-1.39;96.50;101589.06;4974659;28;20034;-80
2023/02/26 03:11:21;;;;;;;12.52;2.13;;;;;;;-1.44;96.71;101588.38;4972541;28;20109;-78
2023/02/26 03:13:50;;;;;;;6.93;1.65;;;;;;;-1.49;96.72;101595.38;4985413;28;20141;-79
2023/02/26 03:16:27;;;;;;;11.82;1.85;;;;;;;-1.53;97.15;101596.38;4965100;28;20042;-80
2023/02/26 03:19:12;;;;;;;9.98;2.10;;;;;;;-1.47;96.77;101591.06;4991810;28;20034;-80
2023/02/26 03:22:08;;;;;;;3.38;1.67;;;;;;;-1.43;96.39;101597.69;4970746;28;20043;-79
2023/02/26 03:25:08;;;;;;;6.95;2.05;;;;;;;-1.52;96.12;101599.75;4953702;28;20045;-80
2023/02/26 03:27:43;;;;;;;7.22;1.80;;;;;;;-1.56;96.44;101604.13;4974619;28;20034;-80
2023/02/26 03:30:22;;;;;;;11.18;1.85;;;;;;;-1.63;96.76;101600.16;4972455;28;20046;-79
2023/02/26 03:33:16;;;;;;;8.10;1.70;;;;;;;-1.64;96.53;101606.97;4970501;28;20110;-81
2023/02/26 03:35:51;;;;;;;15.20;2.03;;;;;;;-1.65;96.77;101614.66;4960990;28;20038;-80
2023/02/26 03:38:27;;;;;;;10.32;1.67;;;;;;;-1.62;97.01;101622.16;4974794;28;20027;-80
2023/02/26 03:41:07;;;;;;;4.80;1.40;;;;;;;-1.67;97.07;101629.16;4966195;28;20041;-80
2023/02/26 03:43:42;;;;;;;9.15;1.83;;;;;;;-1.65;97.45;101629.91;4985594;28;20030;-80
2023/02/26 03:46:18;;;;;;;3.80;1.80;;;;;;;-1.72;97.52;101631.03;4985357;28;20035;-80
2023/02/26 03:48:46;;;;;;;14.02;1.90;;;;;;;-1.71;97.41;101642.84;4990358;28;20034;-79
2023/02/26 03:51:13;;;;;;;4.53;2.22;;;;;;;-1.76;97.98;101645.56;4973065;28;20035;-81
2023/02/26 03:54:12;;;;;;;7.82;2.97;;;;;;;-1.77;97.87;101643.91;4970685;28;20536;-79
2023/02/26 03:56:45;;;;;;;7.70;1.90;;;;;;;-1.77;97.71;101646.47;4991951;28;20405;-78
2023/02/26 03:59:31;;;;;;;10.13;1.85;;;;;;;-1.85;98.52;101643.34;4962304;28;20041;-78
2023/02/26 04:02:49;;;;;;;9.93;2.20;;;;;;;-1.86;99.16;101647.63;4973534;28;20050;-80
2023/02/26 04:05:19;;;;;;;5.75;2.20;;;;;;;-1.70;99.01;101649.59;4986650;28;20041;-80
2023/02/26 04:07:47;;;;;;;9.63;2.50;;;;;;;-1.82;98.62;101650.88;4972662;28;20034;-80
2023/02/26 04:10:20;;;;;;;4.90;2.45;;;;;;;-1.87;99.34;101655.28;4957268;28;20054;-79
2023/02/26 04:12:46;;;;;;;5.57;2.00;;;;;;;-1.87;99.69;101657.84;4972924;28;20031;-80
2023/02/26 04:15:12;;;;;;;8.15;2.33;;;;;;;-1.87;99.78;101655.28;4975965;28;20039;-80
2023/02/26 04:17:39;;;;;;;7.93;2.90;;;;;;;-1.87;99.87;101663.75;4972422;28;20023;-80
2023/02/26 04:20:07;;;;;;;10.48;2.28;;;;;;;-1.91;99.76;101667.28;4970798;28;20031;-78
2023/02/26 04:22:34;;;;;;;11.02;2.38;;;;;;;-1.94;100.00;101664.88;4971472;28;20077;-78
2023/02/26 04:25:00;;;;;;;9.32;2.28;;;;;;;-1.99;100.00;101679.44;4969719;28;20049;-78
2023/02/26 04:27:25;;;;;;;9.23;2.80;;;;;;;-1.99;100.00;101676.91;4968059;28;20486;-80
2023/02/26 04:29:51;;;;;;;10.23;1.92;;;;;;;-1.98;100.00;101678.53;4987829;28;20053;-80
2023/02/26 04:32:17;;;;;;;11.07;1.73;;;;;;;-1.98;100.00;101676.84;4964814;28;20035;-80
2023/02/26 04:34:43;;;;;;;8.52;1.90;;;;;;;-1.92;100.00;101688.53;4977248;28;20041;-78
2023/02/26 04:37:09;;;;;;;10.40;1.67;;;;;;;-1.98;100.00;101684.47;4990379;28;20118;-78
2023/02/26 04:39:36;;;;;;;13.43;2.80;;;;;;;-2.01;100.00;101688.84;4970813;28;20041;-80
2023/02/26 04:42:03;;;;;;;21.40;9.70;;;;;;;-2.07;100.00;101682.25;4970945;28;20034;-79
2023/02/26 04:44:29;;;;;;;39.47;18.17;;;;;;;-2.06;100.00;101691.53;4973112;28;20031;-80
2023/02/26 04:46:55;;;;;;;33.25;12.95;;;;;;;-2.02;100.00;101690.53;4985062;28;20046;-77
2023/02/26 04:49:21;;;;;;;27.10;9.60;;;;;;;-2.03;99.89;101686.34;4962477;28;20501;-80
2023/02/26 04:51:47;;;;;;;16.42;7.20;;;;;;;-2.08;99.92;101689.94;4977463;28;20039;-80
2023/02/26 04:54:15;;;;;;;27.60;14.38;;;;;;;-2.10;99.44;101696.78;4955348;28;20041;-77
2023/02/26 04:56:41;;;;;;;64.70;28.60;;;;;;;-2.13;99.55;101704.50;4984361;28;20027;-79
2023/02/26 04:59:06;;;;;;;26.67;11.07;;;;;;;-2.10;99.75;101709.50;4955456;28;20035;-80
2023/02/26 05:01:33;;;;;;;21.80;8.23;;;;;;;-2.12;99.51;101706.16;4968848;28;20031;-79
2023/02/26 05:03:58;;;;;;;26.25;9.93;;;;;;;-2.07;99.10;101717.00;4972441;28;20038;-79
2023/02/26 05:06:24;;;;;;;30.88;13.23;;;;;;;-2.09;98.84;101726.38;4967252;28;20086;-79
2023/02/26 05:08:50;;;;;;;17.40;5.80;;;;;;;-2.08;98.96;101722.97;4974374;28;20042;-76
2023/02/26 05:11:17;;;;;;;13.43;6.20;;;;;;;-2.14;98.71;101724.00;4953110;28;21061;-78
2023/02/26 05:13:42;;;;;;;20.42;6.78;;;;;;;-2.16;98.43;101723.22;4970792;28;20043;-79
2023/02/26 05:16:08;;;;;;;10.43;3.42;;;;;;;-2.04;98.12;101732.16;4989100;28;20049;-80
2023/02/26 05:18:34;;;;;;;21.05;12.15;;;;;;;-2.14;97.87;101723.19;4973031;28;20027;-79
2023/02/26 05:21:01;;;;;;;34.88;19.25;;;;;;;-2.18;98.06;101735.97;4953192;28;20037;-79
2023/02/26 05:23:26;;;;;;;12.73;5.07;;;;;;;-2.18;97.57;101738.53;4970440;28;20050;-78
2023/02/26 05:25:55;;;;;;;16.27;5.60;;;;;;;-2.15;97.42;101740.13;4968962;28;20109;-80
2023/02/26 05:28:21;;;;;;;27.08;11.30;;;;;;;-2.21;97.16;101746.25;4955819;28;20047;-79
2023/02/26 05:30:46;;;;;;;30.08;11.55;;;;;;;-2.14;96.93;101741.81;4985877;28;20037;-79
2023/02/26 05:33:12;;;;;;;11.55;4.07;;;;;;;-2.16;96.88;101752.00;4976052;28;20038;-78
2023/02/26 05:35:38;;;;;;;18.23;7.30;;;;;;;-2.24;96.62;101753.13;4971849;28;20046;-79
2023/02/26 05:38:03;;;;;;;23.95;7.20;;;;;;;-2.25;96.85;101757.38;4959320;28;20068;-78
2023/02/26 05:40:29;;;;;;;7.63;2.30;;;;;;;-2.24;96.57;101763.28;4956700;28;20036;-80
2023/02/26 05:42:54;;;;;;;22.98;7.07;;;;;;;-2.23;96.04;101764.97;4958044;28;20030;-79
2023/02/26 05:45:20;;;;;;;19.95;9.30;;;;;;;-2.22;95.95;101762.38;4953853;28;20042;-77
2023/02/26 05:47:45;;;;;;;19.50;7.15;;;;;;;-2.22;95.74;101764.94;4954792;28;20034;-78
2023/02/26 05:50:11;;;;;;;37.90;14.75;;;;;;;-2.27;95.87;101768.50;4972293;28;20027;-80
2023/02/26 05:52:37;;;;;;;14.07;3.63;;;;;;;-2.32;95.83;101775.44;4954636;28;20062;-78
2023/02/26 05:55:03;;;;;;;8.90;2.90;;;;;;;-2.28;95.81;101782.91;4971580;28;21797;-79
2023/02/26 05:57:28;;;;;;;13.20;6.25;;;;;;;-2.30;95.65;101787.19;4972280;28;20026;-77
2023/02/26 05:59:54;;;;;;;14.95;7.35;;;;;;;-2.31;96.24;101788.09;4976335;28;20030;-79
2023/02/26 06:02:19;;;;;;;13.15;5.55;;;;;;;-2.42;96.20;101787.59;4969704;28;20038;-80
2023/02/26 06:04:45;;;;;;;8.85;4.18;;;;;;;-2.42;96.11;101800.31;4973337;28;20034;-80
2023/02/26 06:07:11;;;;;;;13.10;4.80;;;;;;;-2.45;96.03;101793.63;4955504;28;20665;-78
2023/02/26 06:09:37;;;;;;;8.02;3.67;;;;;;;-2.43;95.80;101803.69;4960750;28;20094;-79
2023/02/26 06:12:03;;;;;;;13.02;6.07;;;;;;;-2.47;95.94;101802.97;4958766;28;20149;-78
2023/02/26 06:14:28;;;;;;;7.00;2.53;;;;;;;-2.47;96.52;101807.22;4976057;28;20497;-76
2023/02/26 06:16:54;;;;;;;6.68;2.50;;;;;;;-2.54;96.18;101809.13;4957135;28;20512;-77
2023/02/26 06:19:20;;;;;;;13.32;4.50;;;;;;;-2.51;96.17;101808.19;4973512;28;20043;-79
2023/02/26 06:21:46;;;;;;;16.88;6.78;;;;;;;-2.49;96.10;101806.44;4971609;28;20035;-80
2023/02/26 06:24:12;;;;;;;10.82;3.67;;;;;;;-2.43;95.62;101818.94;4965549;28;20040;-80
2023/02/26 06:26:37;;;;;;;10.48;3.72;;;;;;;-2.50;95.50;101820.03;4970038;28;20171;-77
2023/02/26 06:29:03;;;;;;;18.27;5.30;;;;;;;-2.49;95.88;101829.31;4974723;28;20039;-79
2023/02/26 06:31:28;;;;;;;15.85;6.35;;;;;;;-2.45;95.52;101825.78;4958858;28;20043;-79
2023/02/26 06:33:54;;;;;;;11.52;3.03;;;;;;;-2.48;95.38;101828.44;4971846;28;20028;-79
2023/02/26 06:36:19;;;;;;;8.70;2.72;;;;;;;-2.50;95.41;101830.19;4969688;28;20673;-78
2023/02/26 06:38:45;;;;;;;11.30;2.70;;;;;;;-2.49;95.05;101831.84;4971806;28;20039;-79
2023/02/26 06:41:11;;;;;;;22.75;9.02;;;;;;;-2.54;95.36;101837.09;4987410;28;20050;-77
2023/02/26 06:43:36;;;;;;;17.55;5.35;;;;;;;-2.48;95.18;101841.97;4964303;28;20060;-79
2023/02/26 06:46:05;;;;;;;9.75;2.30;;;;;;;-2.47;94.52;101835.16;4989185;28;20035;-78
2023/02/26 06:48:30;;;;;;;5.95;2.53;;;;;;;-2.38;94.50;101840.78;4975910;28;20046;-79
2023/02/26 06:50:56;;;;;;;9.40;2.67;;;;;;;-2.40;94.48;101846.81;4970533;28;20118;-79
2023/02/26 06:53:22;;;;;;;3.95;1.48;;;;;;;-2.41;94.26;101856.16;4985474;28;20041;-77
2023/02/26 06:55:51;;;;;;;9.05;2.88;;;;;;;-2.47;94.51;101863.13;4985544;28;20078;-79
2023/02/26 06:58:16;;;;;;;8.68;2.38;;;;;;;-2.47;94.95;101860.56;4975860;28;20105;-79
2023/02/26 07:00:42;;;;;;;5.40;1.60;;;;;;;-2.45;94.96;101864.75;4974071;28;20042;-79
2023/02/26 07:03:15;;;;;;;7.50;2.20;;;;;;;-2.37;94.07;101879.75;4969887;28;20451;-79
2023/02/26 07:05:40;;;;;;;6.88;1.38;;;;;;;-2.35;93.63;101870.38;4986906;28;20502;-78
2023/02/26 07:08:06;;;;;;;5.07;1.13;;;;;;;-2.37;93.98;101874.69;4972022;28;20134;-79
2023/02/26 07:10:36;;;;;;;9.68;4.00;;;;;;;-2.40;94.04;101879.84;4974529;28;20050;-78
2023/02/26 07:13:01;;;;;;;6.60;1.50;;;;;;;-2.35;93.62;101881.38;4971739;28;20472;-78
2023/02/26 07:15:28;;;;;;;4.97;1.10;;;;;;;-2.32;93.20;101893.13;4974501;28;20093;-79
2023/02/26 07:17:53;;;;;;;6.20;1.77;;;;;;;-2.28;93.04;101893.88;4991472;28;20058;-78
2023/02/26 07:20:19;;;;;;;7.13;1.42;;;;;;;-2.27;93.00;101895.56;4968188;28;20046;-77
2023/02/26 07:22:44;;;;;;;4.75;1.30;;;;;;;-2.29;93.61;101903.22;4988454;28;20039;-77
2023/02/26 07:25:11;;;;;;;6.65;1.33;;;;;;;-2.17;93.11;101909.63;4974082;28;20038;-79
2023/02/26 07:27:36;;;;;;;12.80;1.83;;;;;;;-2.16;92.18;101916.38;4987533;28;20027;-78
2023/02/26 07:30:04;;;;;;;4.53;1.17;;;;;;;-2.10;91.97;101917.91;4969934;28;20041;-79
2023/02/26 07:32:30;;;;;;;7.93;1.40;;;;;;;-2.09;91.63;101919.56;4987632;28;20046;-78
2023/02/26 07:34:55;;;;;;;13.15;1.63;;;;;;;-2.00;92.00;101929.44;4958235;28;20039;-79
2023/02/26 07:37:21;;;;;;;4.60;1.55;;;;;;;-1.81;90.28;101935.66;4987832;28;20039;-75
2023/02/26 07:39:46;;;;;;;27.35;7.07;;;;;;;-1.72;89.91;101938.75;4973084;28;20481;-80
2023/02/26 07:42:12;;;;;;;8.50;1.85;;;;;;;-1.50;89.06;101937.19;4959703;28;20035;-80
2023/02/26 07:44:40;;;;;;;4.97;1.42;;;;;;;-1.32;89.00;101938.28;4973764;28;20062;-80
2023/02/26 07:47:06;;;;;;;6.32;1.58;;;;;;;-1.03;87.71;101947.50;4959217;28;20824;-80
2023/02/26 07:49:32;;;;;;;9.48;1.65;;;;;;;-0.72;85.31;101948.94;4971560;28;20110;-80
2023/02/26 07:51:59;;;;;;;6.75;1.50;;;;;;;-0.45;83.84;101961.59;4959663;28;20056;-81
2023/02/26 07:54:24;;;;;;;7.57;1.55;;;;;;;-0.36;82.43;101953.59;4973859;28;20030;-78
2023/02/26 07:56:50;;;;;;;8.80;2.85;;;;;;;-0.17;81.93;101955.44;4968378;28;20046;-78
2023/02/26 07:59:15;;;;;;;9.80;1.92;;;;;;;-0.17;81.09;101950.34;4968230;28;20073;-79
2023/02/26 08:01:41;;;;;;;12.73;2.00;;;;;;;0.02;80.33;101958.97;4958646;28;20046;-80
2023/02/26 08:04:06;;;;;;;13.82;1.73;;;;;;;0.25;79.10;101955.50;4979587;28;20046;-79
2023/02/26 08:06:32;;;;;;;4.72;1.60;;;;;;;0.31;78.44;101957.81;4973110;28;20113;-78
2023/02/26 08:08:57;;;;;;;9.70;1.83;;;;;;;0.03;77.50;101957.25;4974992;28;20046;-78
2023/02/26 08:11:23;;;;;;;6.43;1.70;;;;;;;0.33;77.52;101965.41;4958901;28;20035;-78
2023/02/26 08:13:48;;;;;;;5.90;1.67;;;;;;;0.41;77.31;101962.56;4972139;28;20026;-76
2023/02/26 08:16:14;;;;;;;6.63;1.60;;;;;;;0.60;76.81;101960.91;4968626;28;20059;-78
2023/02/26 08:18:39;;;;;;;16.05;1.70;;;;;;;1.16;75.06;101969.63;4988153;28;20035;-77
2023/02/26 08:21:05;;;;;;;13.02;1.77;;;;;;;1.70;73.02;101965.53;4960974;28;20441;-78
2023/02/26 08:23:31;;;;;;;9.02;1.77;;;;;;;2.07;70.99;101966.38;4972067;28;20039;-78
2023/02/26 08:26:01;;;;;;;6.65;1.50;;;;;;;2.43;68.52;101972.34;4960102;28;20038;-76
2023/02/26 08:28:27;;;;;;;9.85;3.58;;;;;;;2.98;66.98;101981.63;4978582;28;20513;-78
2023/02/26 08:30:53;;;;;;;35.17;15.05;;;;;;;3.41;66.93;101981.94;4956293;28;20031;-76
2023/02/26 08:33:19;;;;;;;17.42;3.75;;;;;;;3.35;62.87;101983.09;4991476;28;20034;-77
2023/02/26 08:35:44;;;;;;;8.52;1.90;;;;;;;3.79;63.39;101979.09;4988252;28;20401;-77
2023/02/26 08:38:10;;;;;;;13.20;4.80;;;;;;;3.93;62.26;101981.72;4987704;28;20057;-79
2023/02/26 08:40:35;;;;;;;18.30;7.45;;;;;;;4.34;60.77;101991.44;4971461;28;20043;-76
2023/02/26 08:43:02;;;;;;;16.02;7.47;;;;;;;4.57;60.68;102000.41;4954239;28;20068;-76
2023/02/26 08:45:28;;;;;;;9.48;2.47;;;;;;;3.98;60.61;102014.88;4968439;28;20053;-78
2023/02/26 08:47:54;;;;;;;8.40;2.08;;;;;;;4.08;60.66;102011.69;4974818;28;20030;-77
2023/02/26 08:50:20;;;;;;;12.75;2.45;;;;;;;3.92;59.48;102015.19;4956057;28;20046;-78
2023/02/26 08:52:46;;;;;;;10.27;2.65;;;;;;;4.34;60.94;102012.00;4973953;28;20041;-77
2023/02/26 08:55:11;;;;;;;5.85;1.88;;;;;;;4.37;58.66;102024.69;4970905;28;20043;-77
2023/02/26 08:57:37;;;;;;;6.25;1.75;;;;;;;3.68;56.50;102023.28;4969868;28;20031;-78
2023/02/26 09:00:04;;;;;;;6.70;2.10;;;;;;;4.03;57.48;102021.41;4967569;28;20034;-79
2023/02/26 09:02:30;;;;;;;7.70;1.85;;;;;;;4.16;56.81;102026.66;4940473;28;20401;-78
2023/02/26 09:04:55;;;;;;;7.20;1.95;;;;;;;3.95;58.12;102030.41;4976016;28;20030;-79
2023/02/26 09:07:21;;;;;;;6.32;2.75;;;;;;;3.87;56.78;102035.97;4964975;28;20034;-78
2023/02/26 09:09:46;;;;;;;10.10;2.70;;;;;;;3.58;56.85;102040.06;4966785;28;20046;-78
2023/02/26 09:12:12;;;;;;;8.18;2.88;;;;;;;4.05;57.92;102042.69;4974513;28;20492;-77
2023/02/26 09:14:37;;;;;;;7.18;2.10;;;;;;;4.02;57.70;102042.84;4981298;28;20401;-76
2023/02/26 09:17:03;;;;;;;9.43;2.47;;;;;;;3.90;57.13;102051.22;4969930;28;20034;-79
2023/02/26 09:19:28;;;;;;;5.45;2.35;;;;;;;4.07;56.34;102050.31;4983809;28;20093;-78
2023/02/26 09:21:54;;;;;;;10.60;2.22;;;;;;;3.87;57.00;102057.31;4968287;28;20038;-76
2023/02/26 09:24:20;;;;;;;6.47;2.00;;;;;;;3.89;57.52;102058.06;4972444;28;20037;-78
2023/02/26 09:26:45;;;;;;;8.18;1.35;;;;;;;3.84;57.37;102049.81;4974466;28;20054;-77
2023/02/26 09:29:12;;;;;;;6.20;1.60;;;;;;;3.28;57.30;102056.97;4970409;28;20038;-78
2023/02/26 09:31:37;;;;;;;8.52;1.42;;;;;;;3.23;58.70;102070.91;4984378;28;20452;-76
2023/02/26 09:34:03;;;;;;;11.20;1.75;;;;;;;2.47;60.62;102066.06;4953289;28;20118;-79
2023/02/26 09:36:30;;;;;;;10.35;2.30;;;;;;;2.44;61.45;102066.22;4974782;28;20031;-76
2023/02/26 09:38:55;;;;;;;6.75;2.60;;;;;;;2.61;62.30;102079.03;4971510;28;20031;-78
2023/02/26 09:41:28;;;;;;;6.55;1.50;;;;;;;2.52;60.82;102074.34;4968302;28;20047;-77
2023/02/26 09:44:13;;;;;;;8.48;1.90;;;;;;;2.51;61.10;102077.81;4985841;28;20031;-76
2023/02/26 09:47:05;;;;;;;6.85;2.05;;;;;;;2.43;60.28;102074.78;4986574;28;20119;-76
2023/02/26 09:49:40;;;;;;;4.60;1.30;;;;;;;2.64;61.86;102084.03;4973211;28;20046;-76
2023/02/26 09:52:25;;;;;;;6.07;2.20;;;;;;;2.58;63.77;102088.59;4972971;28;20043;-77
2023/02/26 09:55:32;;;;;;;12.85;1.58;;;;;;;2.69;61.93;102086.34;4977276;28;20030;-75
2023/02/26 09:58:01;;;;;;;7.95;1.25;;;;;;;2.67;59.99;102093.28;4972668;28;20051;-77
2023/02/26 10:00:45;;;;;;;3.30;1.13;;;;;;;2.61;60.34;102096.13;4977786;28;20042;-77
2023/02/26 10:03:32;;;;;;;4.88;1.30;;;;;;;2.49;59.16;102103.50;4947766;28;20027;-77
2023/02/26 10:06:18;;;;;;;5.25;1.27;;;;;;;2.33;60.56;102099.97;4969805;28;20142;-76
2023/02/26 10:09:16;;;;;;;8.38;1.75;;;;;;;2.23;59.68;102114.13;4976425;28;20035;-77
2023/02/26 10:12:04;;;;;;;6.53;1.80;;;;;;;2.20;60.49;102104.00;4969932;28;20051;-76
2023/02/26 10:14:38;;;;;;;2.53;1.15;;;;;;;2.00;60.43;102105.75;4987509;28;20443;-76
2023/02/26 10:17:22;;;;;;;10.40;2.50;;;;;;;1.90;60.52;102109.59;4986224;28;20090;-77
2023/02/26 10:19:53;;;;;;;7.57;2.08;;;;;;;2.01;61.00;102119.34;4972966;28;20495;-77
2023/02/26 10:22:22;;;;;;;3.58;1.02;;;;;;;2.06;59.65;102112.31;4992375;28;20567;-78
2023/02/26 10:24:54;;;;;;;2.97;1.10;;;;;;;1.84;58.94;102113.25;4976848;28;20030;-78
2023/02/26 10:27:29;;;;;;;10.30;1.60;;;;;;;1.73;59.81;102118.84;4978901;28;20039;-76
2023/02/26 10:30:02;;;;;;;5.43;1.20;;;;;;;1.89;61.51;102128.41;4972392;28;20532;-78
2023/02/26 10:32:47;;;;;;;;;;;;;;;2.04;60.29;102126.91;4961800;28;20047;-77
2023/02/26 10:35:15;;;;;;;5.95;1.70;;;;;;;2.12;61.19;102117.97;4971007;28;19914;-77
2023/02/26 10:37:58;;;;;;;6.45;1.90;;;;;;;2.28;61.71;102119.81;4973779;28;20035;-77
2023/02/26 10:40:38;;;;;;;8.67;2.90;;;;;;;2.27;60.95;102123.31;4984790;28;20031;-76
2023/02/26 10:43:25;;;;;;;8.32;2.65;;;;;;;2.20;60.25;102127.03;4992011;28;20577;-77
2023/02/26 10:46:09;;;;;;;3.45;1.33;;;;;;;2.19;59.29;102126.22;4991975;28;20051;-78
2023/02/26 10:49:00;;;;;;;3.15;1.08;;;;;;;1.96;59.99;102129.81;4989039;28;20039;-76
2023/02/26 10:51:33;;;;;;;9.30;1.40;;;;;;;1.90;60.16;102130.91;4976464;28;20050;-78
2023/02/26 10:54:26;;;;;;;4.18;1.60;;;;;;;2.11;61.28;102129.13;4977725;28;20520;-79
2023/02/26 10:56:51;;;;;;;4.63;1.47;;;;;;;2.21;60.91;102133.84;4954607;28;20097;-78
2023/02/26 10:59:17;;;;;;;3.53;1.45;;;;;;;2.51;61.19;102122.19;4971887;28;20470;-79
2023/02/26 11:01:43;;;;;;;6.28;2.15;;;;;;;2.65;58.46;102125.81;4973384;28;20117;-79
2023/02/26 11:04:18;;;;;;;1.75;0.85;;;;;;;2.68;56.65;102123.94;4957371;28;20100;-79
2023/02/26 11:06:58;;;;;;;3.30;1.20;;;;;;;2.55;59.47;102138.22;4971429;28;20055;-79
2023/02/26 11:09:42;;;;;;;8.00;1.80;;;;;;;2.69;58.87;102142.69;4993756;28;20122;-80
2023/02/26 11:12:11;;;;;;;2.45;1.15;;;;;;;2.93;57.80;102140.72;4962982;28;20088;-79
2023/02/26 11:14:37;;;;;;;5.05;1.30;;;;;;;2.81;56.73;102141.31;4953829;28;20133;-79
2023/02/26 11:17:10;;;;;;;4.97;1.60;;;;;;;2.90;57.33;102141.69;4978374;28;20117;-80
2023/02/26 11:19:38;;;;;;;;;;;;;;;2.52;56.48;102141.78;4984782;28;20043;-78
2023/02/26 11:22:08;;;;;;;6.63;2.15;;;;;;;2.56;58.21;102141.63;4970800;28;19918;-79
2023/02/26 11:24:40;;;;;;;5.35;1.10;;;;;;;2.68;58.33;102136.75;4974465;28;20023;-81
2023/02/26 11:27:15;;;;;;;5.90;1.30;;;;;;;2.70;57.58;102131.56;4986157;28;20122;-80
2023/02/26 11:29:47;;;;;;;7.03;1.30;;;;;;;2.94;58.46;102144.94;4968205;28;20478;-79
2023/02/26 11:32:20;;;;;;;4.88;0.77;;;;;;;2.91;54.03;102138.22;4990506;28;20042;-80
2023/02/26 11:34:47;;;;;;;;;;;;;;;2.78;54.41;102133.75;4970628;28;20038;-79
2023/02/26 11:37:18;;;;;;;21.17;6.38;;;;;;;3.06;55.17;102139.22;4952728;28;19918;-79
2023/02/26 11:39:45;;;;;;;3.88;2.08;;;;;;;3.01;53.60;102127.53;4985964;28;20058;-80